createdAt,value
2023-03-12T00:05:22.727Z,1.55
2023-03-12T00:13:28.140Z,2.28
2023-03-12T00:21:36.081Z,2.03
2023-03-12T00:29:41.587Z,1.52
2023-03-12T00:37:49.668Z,3.83
2023-03-12T00:45:55.149Z,2.75
2023-03-12T00:54:03.415Z,1.75
2023-03-12T01:02:09.126Z,3.05
2023-03-12T01:10:19.290Z,1.45
2023-03-12T01:18:25.774Z,1.27
2023-03-12T01:26:33.745Z,1.75
2023-03-12T01:34:39.189Z,1.63
2023-03-12T01:42:47.236Z,1.60
2023-03-12T01:50:52.790Z,2.28
2023-03-12T01:59:05.728Z,3.08
2023-03-12T02:07:13.455Z,5.97
2023-03-12T02:15:22.037Z,2.75
2023-03-12T02:23:34.149Z,6.15
2023-03-12T02:31:47.048Z,3.50
2023-03-12T02:39:59.732Z,4.70
2023-03-12T02:48:11.592Z,3.80
2023-03-12T02:56:16.990Z,10.07
2023-03-12T03:04:25.553Z,5.22
2023-03-12T03:12:31.164Z,5.07
2023-03-12T03:20:41.100Z,9.57
2023-03-12T03:28:46.587Z,2.83
2023-03-12T03:36:55.903Z,5.82
2023-03-12T03:45:02.116Z,3.17
2023-03-12T03:53:12.740Z,4.68
2023-03-12T04:01:18.970Z,7.85
2023-03-12T04:09:28.524Z,4.20
2023-03-12T04:17:33.997Z,4.78
2023-03-12T04:25:43.253Z,4.57
2023-03-12T04:33:48.729Z,4.47
2023-03-12T04:41:57.605Z,5.65
2023-03-12T04:50:05.274Z,4.72
2023-03-12T04:58:14.007Z,4.10
2023-03-12T05:06:19.945Z,3.28
2023-03-12T05:14:28.179Z,3.92
2023-03-12T05:22:33.689Z,2.92
2023-03-12T05:30:42.686Z,3.55
2023-03-12T05:38:48.963Z,3.22
2023-03-12T05:46:59.146Z,3.92
2023-03-12T05:55:05.737Z,3.60
2023-03-12T06:03:15.555Z,4.05
2023-03-12T06:11:21.649Z,3.67
2023-03-12T06:19:29.696Z,2.67
2023-03-12T06:27:35.563Z,2.72
2023-03-12T06:35:43.569Z,3.38
2023-03-12T06:43:49.650Z,3.20
2023-03-12T06:51:57.834Z,2.88
2023-03-12T07:00:03.228Z,4.45
2023-03-12T07:08:11.355Z,3.78
2023-03-12T07:16:18.048Z,2.47
2023-03-12T07:24:26.069Z,5.10
2023-03-12T07:32:33.639Z,8.10
2023-03-12T07:40:41.738Z,3.72
2023-03-12T07:48:47.468Z,4.85
2023-03-12T07:56:55.597Z,3.20
2023-03-12T08:05:01.405Z,3.75
2023-03-12T08:13:09.466Z,2.65
2023-03-12T08:21:16.755Z,4.10
2023-03-12T08:29:24.726Z,3.22
2023-03-12T08:37:42.375Z,2.95
2023-03-12T08:45:50.435Z,3.63
2023-03-12T08:53:56.008Z,4.70
2023-03-12T09:02:05.215Z,2.22
2023-03-12T09:10:11.703Z,2.58
2023-03-12T09:18:20.384Z,2.92
2023-03-12T09:26:25.889Z,4.40
2023-03-12T09:34:33.924Z,3.85
2023-03-12T09:42:47.208Z,3.97
2023-03-12T09:50:56.510Z,2.92
2023-03-12T09:59:02.031Z,2.97
2023-03-12T10:07:14.878Z,3.90
2023-03-12T10:15:35.323Z,3.50
2023-03-12T10:23:55.196Z,3.55
2023-03-12T10:32:03.397Z,2.28
2023-03-12T10:40:18.562Z,2.35
2023-03-12T10:48:25.806Z,2.97
2023-03-12T10:56:50.782Z,7.72
2023-03-12T11:04:56.782Z,2.40
2023-03-12T11:13:08.552Z,4.30
2023-03-12T11:21:21.726Z,4.18
2023-03-12T11:29:33.455Z,3.55
2023-03-12T11:37:54.616Z,2.65
2023-03-12T11:46:17.228Z,2.53
2023-03-12T11:54:46.448Z,3.42
2023-03-12T12:03:27.944Z,3.35
2023-03-12T12:11:45.367Z,6.53
2023-03-12T12:20:14.726Z,3.10
2023-03-12T12:28:54.295Z,4.07
2023-03-12T12:37:18.001Z,5.43
2023-03-12T12:53:40.466Z,3.33
2023-03-12T13:01:47.250Z,6.55
2023-03-12T13:09:59.608Z,4.78
2023-03-12T13:18:10.396Z,14.38
2023-03-12T13:26:26.786Z,3.85
2023-03-12T13:34:50.559Z,3.58
2023-03-12T13:43:14.512Z,3.17
2023-03-12T13:51:23.423Z,3.35
2023-03-12T13:59:33.013Z,3.85
2023-03-12T14:08:11.929Z,2.67
2023-03-12T14:16:29.394Z,4.47
2023-03-12T14:24:37.388Z,2.80
2023-03-12T14:32:48.247Z,4.10
2023-03-12T14:40:58.996Z,6.63
2023-03-12T14:49:07.189Z,4.47
2023-03-12T14:57:16.918Z,4.53
2023-03-12T15:05:26.880Z,7.82
2023-03-12T15:13:32.414Z,3.88
2023-03-12T15:21:40.580Z,4.85
2023-03-12T15:29:45.966Z,6.93
2023-03-12T15:37:56.007Z,5.07
2023-03-12T15:46:04.050Z,6.70
2023-03-12T15:54:28.437Z,6.43
2023-03-12T16:02:50.649Z,3.50
2023-03-12T16:10:59.152Z,60.00
2023-03-12T16:19:04.643Z,64.85
2023-03-12T16:27:23.633Z,131.82
2023-03-12T16:35:33.524Z,47.97
2023-03-12T16:43:41.653Z,48.85
2023-03-12T16:51:47.886Z,40.00
2023-03-12T16:59:58.814Z,19.85
2023-03-12T17:08:04.360Z,14.30
2023-03-12T17:16:14.517Z,10.90
2023-03-12T17:24:20.019Z,11.15
2023-03-12T17:32:28.112Z,16.35
2023-03-12T17:40:34.017Z,21.80
2023-03-12T17:48:42.279Z,25.90
2023-03-12T17:56:47.648Z,19.33
2023-03-12T18:04:55.639Z,16.25
2023-03-12T18:13:01.131Z,15.00
2023-03-12T18:21:09.303Z,20.75
2023-03-12T18:29:14.604Z,24.83
2023-03-12T18:37:23.117Z,23.13
2023-03-12T18:45:28.535Z,24.92
2023-03-12T18:53:36.385Z,26.00
2023-03-12T19:01:41.823Z,26.02
2023-03-12T19:09:49.991Z,28.42
2023-03-12T19:17:55.550Z,35.78
2023-03-12T19:26:03.439Z,56.03
2023-03-12T19:34:08.926Z,57.25
2023-03-12T19:42:16.878Z,57.92
2023-03-12T19:50:23.164Z,55.10
2023-03-12T19:58:31.354Z,35.83
2023-03-12T20:06:36.774Z,41.78
2023-03-12T20:14:44.767Z,43.90
2023-03-12T20:22:50.116Z,40.28
2023-03-12T20:30:58.201Z,50.10
2023-03-12T20:39:04.225Z,41.70
2023-03-12T20:47:12.148Z,30.27
2023-03-12T20:55:17.709Z,26.60
2023-03-12T21:03:25.816Z,42.22
2023-03-12T21:11:31.499Z,40.75
2023-03-12T21:19:39.795Z,29.10
2023-03-12T21:27:51.057Z,34.67
2023-03-12T21:35:59.716Z,49.55
2023-03-12T21:44:05.318Z,46.30
2023-03-12T21:52:13.462Z,44.30
2023-03-12T22:00:19.375Z,52.80
2023-03-12T22:08:27.430Z,55.83
2023-03-12T22:16:33.106Z,62.38
2023-03-12T22:24:41.277Z,55.67
2023-03-12T22:32:46.561Z,40.83
2023-03-12T22:40:55.840Z,45.33
2023-03-12T22:49:03.978Z,47.28
2023-03-12T22:57:12.069Z,48.45
2023-03-12T23:05:17.440Z,53.50
2023-03-12T23:13:26.090Z,46.90
2023-03-12T23:21:31.462Z,49.13
2023-03-12T23:29:39.524Z,36.67
2023-03-12T23:37:44.938Z,36.22
2023-03-12T23:45:58.890Z,34.38
2023-03-12T23:54:07.354Z,32.25
